Time;durP1;ratioP1;P1;durP2;ratioP2;P2;SDS_P1;SDS_P2;PMS_P1;PMS_P2;Temp;Humidity;BMP_temperature;BMP_pressure;BME280_temperature;BME280_humidity;BME280_pressure;Samples;Min_cycle;Max_cycle;Signal;HPM_P1;HPM_P2
2022/10/03 00:00:39;;;;;;;8.98;1.80;;;14.10;99.90;;;;;;4938877;29;20062;-80
2022/10/03 00:03:23;;;;;;;10.40;1.13;;;14.00;99.90;;;;;;4921753;29;20047;-80
2022/10/03 00:06:10;;;;;;;11.45;1.83;;;14.00;99.90;;;;;;4920393;29;20127;-81
2022/10/03 00:09:02;;;;;;;10.20;1.40;;;14.00;99.90;;;;;;4939023;29;20123;-80
2022/10/03 00:11:46;;;;;;;9.90;1.52;;;14.00;99.90;;;;;;4921166;29;20083;-80
2022/10/03 00:14:25;;;;;;;12.70;1.30;;;14.00;99.90;;;;;;4919959;29;20491;-80
2022/10/03 00:17:17;;;;;;;5.10;0.80;;;14.00;99.90;;;;;;4920914;29;20111;-80
2022/10/03 00:20:01;;;;;;;13.38;1.88;;;14.00;99.90;;;;;;4938162;29;20043;-80
2022/10/03 00:22:50;;;;;;;7.93;1.35;;;14.00;99.90;;;;;;4920199;29;20056;-81
2022/10/03 00:25:50;;;;;;;7.90;1.23;;;14.00;99.90;;;;;;4937486;29;20198;-80
2022/10/03 00:28:37;;;;;;;10.00;1.40;;;14.00;99.90;;;;;;4920824;29;20051;-80
2022/10/03 00:31:16;;;;;;;11.27;1.92;;;14.00;99.90;;;;;;4920582;29;20483;-80
2022/10/03 00:34:02;;;;;;;14.10;1.80;;;14.00;99.90;;;;;;4919873;29;20078;-80
2022/10/03 00:36:42;;;;;;;8.15;1.33;;;13.90;99.90;;;;;;4937108;29;20043;-80
2022/10/03 00:39:49;;;;;;;13.88;1.42;;;14.00;99.90;;;;;;4920474;29;20052;-81
2022/10/03 00:42:34;;;;;;;8.27;1.02;;;13.90;99.90;;;;;;4920049;29;20058;-80
2022/10/03 00:45:00;;;;;;;9.57;1.45;;;14.00;99.90;;;;;;4919698;29;20168;-80
2022/10/03 00:47:31;;;;;;;13.10;1.30;;;13.90;99.90;;;;;;4937717;29;20136;-80
2022/10/03 00:50:10;;;;;;;7.80;1.33;;;13.90;99.90;;;;;;4937620;29;20055;-80
2022/10/03 00:52:45;;;;;;;12.57;1.27;;;13.90;99.90;;;;;;4920291;29;20107;-79
2022/10/03 00:55:42;;;;;;;10.93;1.88;;;13.90;99.90;;;;;;4936911;29;20090;-80
2022/10/03 00:58:29;;;;;;;7.60;1.00;;;13.90;99.90;;;;;;4920332;29;20043;-81
2022/10/03 01:01:18;;;;;;;11.20;1.60;;;13.90;99.90;;;;;;4936793;29;20164;-80
2022/10/03 01:04:21;;;;;;;8.13;1.30;;;13.90;99.90;;;;;;4920102;29;20475;-80
2022/10/03 01:07:24;;;;;;;10.18;1.20;;;14.00;99.90;;;;;;4920970;29;20047;-82
2022/10/03 01:10:03;;;;;;;11.30;1.20;;;14.00;99.90;;;;;;4920733;29;20134;-80
2022/10/03 01:12:44;;;;;;;15.50;1.40;;;14.00;99.90;;;;;;4936237;29;20518;-80
2022/10/03 01:15:37;;;;;;;6.70;1.17;;;14.00;99.90;;;;;;4936950;29;20539;-81
2022/10/03 01:18:38;;;;;;;11.27;1.55;;;14.00;99.90;;;;;;4937250;29;20087;-81
2022/10/03 01:21:31;;;;;;;11.60;1.60;;;14.00;99.90;;;;;;4919780;29;20043;-81
2022/10/03 01:23:56;;;;;;;8.93;1.35;;;14.00;99.90;;;;;;4937920;29;20052;-80
2022/10/03 01:26:47;;;;;;;9.88;1.67;;;14.00;99.90;;;;;;4941461;29;20443;-80
2022/10/03 01:32:39;;;;;;;9.73;1.00;;;14.00;99.90;;;;;;4940564;29;20384;-80
2022/10/03 01:35:46;;;;;;;9.18;1.40;;;14.00;99.90;;;;;;4940349;29;20074;-81
2022/10/03 01:38:33;;;;;;;9.38;1.52;;;14.00;99.90;;;;;;4923344;29;20067;-80
2022/10/03 01:41:13;;;;;;;11.30;1.42;;;14.00;99.90;;;;;;4940492;29;20058;-81
2022/10/03 01:43:50;;;;;;;9.02;1.23;;;14.00;99.90;;;;;;4940654;29;20055;-80
2022/10/03 01:46:26;;;;;;;10.20;1.27;;;14.00;99.90;;;;;;4922955;29;20047;-81
2022/10/03 01:49:10;;;;;;;8.45;1.27;;;14.00;99.90;;;;;;4924191;29;20048;-81
2022/10/03 01:51:51;;;;;;;9.20;1.10;;;14.00;99.90;;;;;;4923805;29;20131;-81
2022/10/03 01:54:39;;;;;;;10.18;1.60;;;14.00;99.90;;;;;;4923037;29;20052;-80
2022/10/03 01:57:20;;;;;;;12.25;1.45;;;14.00;99.90;;;;;;4924359;29;20394;-81
2022/10/03 01:59:55;;;;;;;12.75;1.42;;;14.10;99.90;;;;;;4923263;29;20059;-80
2022/10/03 02:02:32;;;;;;;10.15;0.88;;;14.00;99.90;;;;;;4922868;29;20104;-80
2022/10/03 02:05:18;;;;;;;7.88;1.00;;;14.00;99.90;;;;;;4922903;29;20058;-81
2022/10/03 02:07:58;;;;;;;8.07;1.10;;;14.00;99.90;;;;;;4923867;29;20056;-80
2022/10/03 02:10:47;;;;;;;8.55;1.20;;;14.00;99.90;;;;;;4940723;29;20055;-81
2022/10/03 02:13:47;;;;;;;8.73;1.15;;;14.00;99.90;;;;;;4939946;29;20048;-80
2022/10/03 02:16:43;;;;;;;8.57;0.95;;;14.00;99.90;;;;;;4923974;29;20047;-80
2022/10/03 02:19:21;;;;;;;8.15;1.50;;;14.00;99.90;;;;;;4923142;29;20051;-80
2022/10/03 02:21:50;;;;;;;7.75;1.17;;;14.00;99.90;;;;;;4923626;29;20048;-81
2022/10/03 02:24:16;;;;;;;10.18;1.17;;;13.90;99.90;;;;;;4923802;29;20044;-80
2022/10/03 02:26:42;;;;;;;9.52;2.22;;;13.90;99.90;;;;;;4923979;29;20063;-80
2022/10/03 02:29:39;;;;;;;13.75;1.65;;;13.90;99.90;;;;;;4921959;29;20047;-80
2022/10/03 02:32:27;;;;;;;10.07;1.23;;;13.80;99.90;;;;;;4885236;29;20140;-81
2022/10/03 02:35:10;;;;;;;9.50;1.20;;;13.80;99.90;;;;;;4923572;29;20138;-80
2022/10/03 02:38:16;;;;;;;10.70;1.92;;;13.80;99.90;;;;;;4923112;29;20054;-80
2022/10/03 02:41:01;;;;;;;9.13;1.05;;;13.70;99.90;;;;;;4922570;29;20137;-80
2022/10/03 02:43:52;;;;;;;9.18;1.20;;;13.70;99.90;;;;;;4923204;29;20111;-81
2022/10/03 02:46:43;;;;;;;12.95;1.15;;;13.70;99.90;;;;;;4922457;29;20438;-81
2022/10/03 02:49:43;;;;;;;9.40;1.27;;;13.80;99.90;;;;;;4923594;29;20399;-80
2022/10/03 02:52:21;;;;;;;10.68;1.85;;;13.80;99.90;;;;;;4922015;29;20054;-80
2022/10/03 02:54:55;;;;;;;6.10;0.82;;;13.80;99.90;;;;;;4938891;29;20123;-81
2022/10/03 02:57:41;;;;;;;9.18;0.98;;;13.80;99.90;;;;;;4924146;29;20048;-80
2022/10/03 03:00:09;;;;;;;5.53;0.90;;;13.90;99.90;;;;;;4922438;29;20060;-80
2022/10/03 03:03:04;;;;;;;9.07;0.93;;;13.90;99.90;;;;;;4938855;29;20407;-80
2022/10/03 03:06:11;;;;;;;9.32;1.42;;;13.90;99.90;;;;;;4922217;29;20040;-80
2022/10/03 03:08:57;;;;;;;7.43;1.38;;;13.90;99.90;;;;;;4940103;29;20079;-80
2022/10/03 03:11:41;;;;;;;10.05;1.13;;;13.90;99.90;;;;;;4922083;29;20531;-81
2022/10/03 03:14:46;;;;;;;8.57;1.15;;;13.90;99.90;;;;;;4922444;29;20052;-81
2022/10/03 03:17:39;;;;;;;7.70;1.33;;;13.90;99.90;;;;;;4921107;29;20106;-80
2022/10/03 03:20:13;;;;;;;9.27;1.45;;;13.90;99.90;;;;;;4938936;29;20465;-81
2022/10/03 03:23:24;;;;;;;7.22;0.77;;;13.90;99.90;;;;;;4938434;29;20055;-81
2022/10/03 03:26:16;;;;;;;6.32;1.05;;;13.80;99.90;;;;;;4921711;29;20094;-81
2022/10/03 03:29:09;;;;;;;13.15;1.33;;;13.70;99.90;;;;;;4921510;29;20110;-81
2022/10/03 03:31:45;;;;;;;7.93;1.50;;;13.80;99.90;;;;;;4937826;29;20044;-81
2022/10/03 03:34:27;;;;;;;7.00;0.90;;;13.80;99.90;;;;;;4921150;29;20043;-81
2022/10/03 03:37:34;;;;;;;8.82;1.92;;;13.80;99.90;;;;;;4921530;29;20055;-81
2022/10/03 03:40:13;;;;;;;8.90;1.00;;;13.70;99.90;;;;;;4827185;29;20087;-80
2022/10/03 03:43:04;;;;;;;7.53;1.40;;;13.70;99.90;;;;;;4914780;29;20067;-81
2022/10/03 03:46:03;;;;;;;10.80;1.27;;;13.70;99.90;;;;;;4920966;29;20399;-80
2022/10/03 03:48:47;;;;;;;12.65;1.65;;;13.70;99.90;;;;;;4840104;29;20099;-81
2022/10/03 03:51:58;;;;;;;7.43;1.20;;;13.70;99.90;;;;;;4921297;29;20059;-81
2022/10/03 03:54:56;;;;;;;9.25;1.30;;;13.70;99.90;;;;;;4826994;29;20593;-81
2022/10/03 03:57:33;;;;;;;9.27;1.00;;;13.70;99.90;;;;;;4938204;29;20075;-80
2022/10/03 04:00:05;;;;;;;7.32;1.40;;;13.70;99.90;;;;;;4937384;29;20060;-81
2022/10/03 04:03:00;;;;;;;6.50;1.08;;;13.80;99.90;;;;;;4920596;29;20052;-81
2022/10/03 04:05:31;;;;;;;7.28;1.30;;;13.70;99.90;;;;;;4921609;29;20083;-81
2022/10/03 04:08:27;;;;;;;6.68;0.90;;;13.70;99.90;;;;;;4920437;29;20398;-81
2022/10/03 04:11:22;;;;;;;13.85;1.80;;;13.70;99.90;;;;;;4920052;29;20055;-81
2022/10/03 04:14:25;;;;;;;9.20;1.30;;;13.70;99.90;;;;;;4920801;29;20510;-81
2022/10/03 04:20:10;;;;;;;15.90;1.23;;;13.70;99.90;;;;;;4919977;29;20059;-81
2022/10/03 04:23:05;;;;;;;7.75;1.13;;;13.60;99.90;;;;;;4920226;29;20063;-80
2022/10/03 04:26:01;;;;;;;6.28;1.25;;;13.60;99.90;;;;;;4920039;29;20146;-80
2022/10/03 04:28:27;;;;;;;7.78;0.90;;;13.60;99.90;;;;;;4936937;29;20063;-81
2022/10/03 04:31:00;;;;;;;8.23;1.35;;;13.60;99.90;;;;;;4938662;29;20491;-81
2022/10/03 04:33:42;;;;;;;7.45;1.10;;;13.60;99.90;;;;;;4938257;29;20065;-80
2022/10/03 04:36:23;;;;;;;7.10;1.02;;;13.60;99.90;;;;;;4920179;29;20059;-81
2022/10/03 04:39:07;;;;;;;8.40;0.90;;;13.60;99.90;;;;;;4937071;29;20044;-80
2022/10/03 04:41:44;;;;;;;9.73;1.20;;;13.50;99.90;;;;;;4937230;29;20058;-81
2022/10/03 04:44:44;;;;;;;9.43;1.45;;;13.50;99.90;;;;;;4936719;29;20039;-81
2022/10/03 04:47:33;;;;;;;9.38;1.15;;;13.50;99.90;;;;;;4919562;29;20055;-82
2022/10/03 04:50:10;;;;;;;7.68;0.73;;;13.40;99.90;;;;;;4936655;29;20055;-81
2022/10/03 04:52:56;;;;;;;9.27;1.20;;;13.40;99.90;;;;;;4936459;29;20103;-81
2022/10/03 04:55:27;;;;;;;12.25;1.23;;;13.30;99.90;;;;;;4919690;29;20534;-81
2022/10/03 04:58:02;;;;;;;9.55;1.08;;;13.10;99.90;;;;;;4937288;29;20051;-81
2022/10/03 05:00:55;;;;;;;7.22;1.55;;;13.00;99.90;;;;;;4927465;29;20079;-81
2022/10/03 05:03:31;;;;;;;8.30;0.93;;;13.00;99.90;;;;;;4926242;29;20062;-81
2022/10/03 05:06:16;;;;;;;7.53;1.02;;;12.80;99.90;;;;;;4925737;29;20131;-81
2022/10/03 05:08:54;;;;;;;7.20;0.73;;;12.70;99.90;;;;;;4926928;29;20043;-81
2022/10/03 05:11:29;;;;;;;6.47;1.00;;;12.60;99.90;;;;;;4943188;29;20051;-81
2022/10/03 05:14:12;;;;;;;10.90;0.90;;;12.40;99.90;;;;;;4927464;29;20048;-81
2022/10/03 05:16:50;;;;;;;12.30;1.10;;;12.30;99.90;;;;;;4943202;29;20086;-81
2022/10/03 05:19:43;;;;;;;8.13;1.00;;;12.20;99.90;;;;;;4926961;29;20048;-81
2022/10/03 05:22:24;;;;;;;7.97;1.10;;;12.10;99.90;;;;;;4925967;29;20059;-81
2022/10/03 05:25:16;;;;;;;7.38;0.73;;;11.90;99.90;;;;;;4927027;29;20051;-81
2022/10/03 05:27:50;;;;;;;7.10;0.65;;;11.80;99.90;;;;;;4926406;29;20050;-81
2022/10/03 05:30:24;;;;;;;5.32;0.85;;;11.70;99.90;;;;;;4943032;29;20067;-81
2022/10/03 05:33:01;;;;;;;10.65;1.13;;;11.60;99.90;;;;;;4942257;29;20403;-81
2022/10/03 05:36:05;;;;;;;5.10;0.82;;;11.50;99.90;;;;;;4924151;29;20059;-81
2022/10/03 05:39:01;;;;;;;7.13;1.23;;;11.40;99.90;;;;;;4942395;29;20048;-81
2022/10/03 05:41:35;;;;;;;9.90;1.10;;;11.30;99.90;;;;;;4925115;29;20131;-81
2022/10/03 05:44:02;;;;;;;7.20;0.88;;;11.30;99.90;;;;;;4925069;29;20126;-81
2022/10/03 05:46:53;;;;;;;8.23;0.73;;;11.20;99.90;;;;;;4925367;29;20495;-81
2022/10/03 05:50:10;;;;;;;4.35;0.65;;;11.10;99.90;;;;;;4925093;29;20386;-81
2022/10/03 05:52:44;;;;;;;10.57;0.98;;;11.00;99.90;;;;;;4830828;29;20119;-81
2022/10/03 05:55:22;;;;;;;10.13;1.20;;;11.00;99.90;;;;;;4831093;29;20065;-81
2022/10/03 05:58:06;;;;;;;6.18;1.02;;;10.90;99.90;;;;;;4887751;29;20530;-81
2022/10/03 06:01:02;;;;;;;4.32;0.70;;;10.90;99.90;;;;;;4942010;29;20047;-81
2022/10/03 06:04:06;;;;;;;4.35;0.75;;;10.80;99.90;;;;;;4924882;29;20130;-80
2022/10/03 06:06:38;;;;;;;;;;;10.80;99.90;;;;;;4925600;29;20391;-81
2022/10/03 06:09:13;;;;;;;8.40;1.08;;;10.80;99.90;;;;;;4942248;29;19930;-80
2022/10/03 06:12:03;;;;;;;9.15;1.15;;;10.70;99.90;;;;;;4938702;29;20044;-81
2022/10/03 06:14:35;;;;;;;9.75;1.35;;;10.70;99.90;;;;;;4921791;29;20483;-80
2022/10/03 06:17:12;;;;;;;6.32;0.90;;;10.70;99.90;;;;;;4921853;29;20052;-80
2022/10/03 06:19:53;;;;;;;6.22;1.23;;;10.80;99.90;;;;;;4922063;29;20130;-81
2022/10/03 06:22:53;;;;;;;7.20;1.02;;;10.80;99.90;;;;;;4921888;29;20483;-81
2022/10/03 06:25:36;;;;;;;8.15;1.42;;;10.90;99.90;;;;;;4921696;29;20510;-81
2022/10/03 06:28:20;;;;;;;8.77;1.20;;;10.90;99.90;;;;;;4921695;29;20062;-81
2022/10/03 06:31:01;;;;;;;13.68;2.80;;;11.00;99.90;;;;;;4921417;29;20096;-80
2022/10/03 06:33:32;;;;;;;22.98;4.05;;;11.00;99.90;;;;;;4921540;29;20047;-80
2022/10/03 06:36:07;;;;;;;19.27;3.47;;;11.10;99.90;;;;;;4938818;29;20174;-81
2022/10/03 06:38:51;;;;;;;13.60;1.77;;;11.20;99.90;;;;;;4921940;29;20095;-80
2022/10/03 06:41:35;;;;;;;8.43;1.38;;;11.20;99.90;;;;;;4917672;29;20047;-81
2022/10/03 06:44:32;;;;;;;5.22;1.20;;;11.30;99.90;;;;;;4890310;29;20044;-80
2022/10/03 06:47:30;;;;;;;11.00;1.30;;;11.40;99.90;;;;;;4902463;29;20056;-80
2022/10/03 06:49:56;;;;;;;11.98;2.70;;;11.50;99.90;;;;;;4902491;29;20063;-81
2022/10/03 06:52:24;;;;;;;8.55;1.58;;;11.50;99.90;;;;;;4902074;29;20060;-80
2022/10/03 06:55:11;;;;;;;9.95;1.88;;;11.60;99.90;;;;;;4902289;29;20044;-80
2022/10/03 06:58:03;;;;;;;9.55;1.58;;;11.60;99.90;;;;;;4902197;29;20526;-80
2022/10/03 07:01:01;;;;;;;9.98;1.63;;;11.70;99.90;;;;;;4936348;29;20052;-80
2022/10/03 07:03:48;;;;;;;7.45;1.10;;;11.80;99.90;;;;;;4912574;29;20099;-80
2022/10/03 07:06:42;;;;;;;11.32;1.65;;;11.80;99.90;;;;;;4936921;29;20060;-80
2022/10/03 07:09:30;;;;;;;9.60;1.50;;;11.90;99.90;;;;;;4938730;29;20055;-80
2022/10/03 07:12:20;;;;;;;10.65;1.40;;;11.90;99.90;;;;;;4936382;29;20056;-80
2022/10/03 07:15:17;;;;;;;7.90;1.38;;;12.00;99.90;;;;;;4937663;29;20074;-80
2022/10/03 07:18:07;;;;;;;7.72;1.30;;;12.10;99.90;;;;;;4937672;29;20454;-80
2022/10/03 07:21:09;;;;;;;9.85;1.30;;;12.30;99.90;;;;;;4937530;29;20126;-80
2022/10/03 07:24:01;;;;;;;13.20;1.63;;;12.30;99.90;;;;;;4936204;29;20052;-80
2022/10/03 07:26:45;;;;;;;11.38;1.13;;;12.40;99.90;;;;;;4936384;29;20047;-80
2022/10/03 07:29:28;;;;;;;9.32;1.30;;;12.50;99.90;;;;;;4936203;29;20058;-86
2022/10/03 07:31:56;;;;;;;9.45;1.73;;;12.60;99.90;;;;;;4936304;29;20058;-80
2022/10/03 07:35:07;;;;;;;7.72;1.45;;;12.70;99.90;;;;;;4935999;29;20056;-80
2022/10/03 07:41:08;;;;;;;9.88;1.45;;;12.90;99.90;;;;;;4905045;29;20499;-80
2022/10/03 07:44:07;;;;;;;9.82;0.93;;;13.00;99.90;;;;;;4935849;29;20499;-79
2022/10/03 07:46:47;;;;;;;10.70;1.50;;;13.00;99.90;;;;;;4935932;29;20052;-79
2022/10/03 07:49:31;;;;;;;9.30;1.42;;;13.20;99.90;;;;;;4935747;29;20053;-79
2022/10/03 07:52:15;;;;;;;;;;;13.30;99.90;;;;;;4934402;29;20079;-79
2022/10/03 07:55:08;;;;;;;9.57;1.33;;;13.40;99.90;;;;;;4935577;29;19923;-79
2022/10/03 07:57:49;;;;;;;;;;;13.50;99.90;;;;;;4937647;29;20054;-79
2022/10/03 08:00:24;;;;;;;14.10;2.45;;;13.60;99.90;;;;;;4936496;29;19958;-79
2022/10/03 08:02:56;;;;;;;6.40;1.40;;;13.70;99.90;;;;;;4938312;29;20059;-79
2022/10/03 08:05:33;;;;;;;8.60;1.67;;;13.80;99.90;;;;;;4939014;29;20077;-79
2022/10/03 08:08:36;;;;;;;4.63;1.00;;;13.80;99.90;;;;;;4938287;29;20051;-79
2022/10/03 08:11:33;;;;;;;7.88;1.20;;;13.90;99.90;;;;;;4938836;29;20054;-79
2022/10/03 08:14:21;;;;;;;9.55;1.40;;;14.00;99.90;;;;;;4938860;29;20514;-79
2022/10/03 08:17:24;;;;;;;9.77;1.00;;;14.10;99.90;;;;;;4918912;29;20488;-79
2022/10/03 08:20:10;;;;;;;10.13;1.10;;;14.20;99.90;;;;;;4919241;29;20044;-79
2022/10/03 08:22:54;;;;;;;9.73;1.58;;;14.30;99.90;;;;;;4936631;29;20290;-79
2022/10/03 08:25:28;;;;;;;7.78;1.00;;;14.40;99.90;;;;;;4918778;29;20062;-80
2022/10/03 08:28:18;;;;;;;6.78;1.00;;;14.40;99.90;;;;;;4919325;29;20119;-80
2022/10/03 08:31:00;;;;;;;9.43;1.42;;;14.60;99.90;;;;;;4919297;29;20448;-81
2022/10/03 08:34:00;;;;;;;6.18;1.00;;;14.70;99.90;;;;;;4917139;29;20070;-80
2022/10/03 08:36:41;;;;;;;10.63;1.00;;;14.80;99.90;;;;;;4917579;29;20052;-80
2022/10/03 08:39:34;;;;;;;7.20;1.27;;;14.90;99.90;;;;;;4919446;29;20051;-80
2022/10/03 08:42:25;;;;;;;10.20;0.85;;;15.00;99.90;;;;;;4919355;29;20155;-79
2022/10/03 08:44:53;;;;;;;8.90;1.90;;;15.20;99.90;;;;;;4919195;29;20521;-80
2022/10/03 08:48:07;;;;;;;8.10;1.23;;;15.20;99.90;;;;;;4919084;29;20495;-79
2022/10/03 08:50:53;;;;;;;;;;;15.30;99.90;;;;;;4919556;29;20196;-79
2022/10/03 08:53:45;;;;;;;15.45;1.45;;;15.50;99.90;;;;;;4918702;29;19930;-79
2022/10/03 08:56:47;;;;;;;8.25;0.98;;;15.50;99.90;;;;;;4917979;29;20058;-84
2022/10/03 08:59:22;;;;;;;7.45;0.98;;;15.70;99.90;;;;;;4918567;29;20058;-85
2022/10/03 09:02:19;;;;;;;8.07;1.10;;;15.70;99.90;;;;;;4918857;29;20047;-87
2022/10/03 09:05:06;;;;;;;5.38;1.00;;;15.80;99.90;;;;;;4918647;29;20055;-90
2022/10/03 09:08:00;;;;;;;8.77;1.00;;;15.90;99.90;;;;;;4918932;29;20075;-86
2022/10/03 09:10:43;;;;;;;5.28;0.80;;;15.90;99.90;;;;;;4918738;29;20163;-87
2022/10/03 09:13:09;;;;;;;8.35;0.90;;;16.00;99.90;;;;;;4918728;29;20051;-88
2022/10/03 09:16:08;;;;;;;7.82;1.20;;;16.00;99.90;;;;;;4918264;29;20055;-86
2022/10/03 09:18:53;;;;;;;7.15;1.35;;;16.10;99.90;;;;;;4919153;29;20051;-85
2022/10/03 09:22:01;;;;;;;11.55;0.93;;;16.20;99.90;;;;;;4918717;29;20048;-86
2022/10/03 09:24:40;;;;;;;6.00;0.80;;;16.30;99.90;;;;;;4874804;29;20095;-91
2022/10/03 09:27:17;;;;;;;6.70;0.80;;;16.30;99.90;;;;;;4918561;29;20040;-84
2022/10/03 09:30:19;;;;;;;6.18;0.85;;;16.40;99.90;;;;;;4918436;29;20554;-85
2022/10/03 09:33:17;;;;;;;6.30;0.88;;;16.40;99.90;;;;;;4918696;29;20051;-84
2022/10/03 09:36:19;;;;;;;6.55;0.80;;;16.50;99.90;;;;;;4918265;29;20516;-88
2022/10/03 09:39:11;;;;;;;5.53;0.70;;;16.60;99.90;;;;;;4935725;29;20058;-78
2022/10/03 09:41:52;;;;;;;5.22;0.90;;;16.60;99.90;;;;;;4934685;29;20050;-79
2022/10/03 09:44:30;;;;;;;5.50;0.70;;;16.60;99.90;;;;;;4918239;29;20047;-78
2022/10/03 09:47:26;;;;;;;7.30;0.73;;;16.60;99.90;;;;;;4936451;29;20052;-79
2022/10/03 09:49:55;;;;;;;6.50;0.88;;;16.70;99.90;;;;;;4920146;29;20047;-79
2022/10/03 09:52:46;;;;;;;10.65;1.65;;;16.80;99.90;;;;;;4921940;29;20048;-79
2022/10/03 09:55:29;;;;;;;5.50;0.90;;;16.80;99.90;;;;;;4886083;29;20093;-79
2022/10/03 09:58:04;;;;;;;4.95;1.10;;;16.90;99.90;;;;;;4939289;29;20102;-79
2022/10/03 10:00:58;;;;;;;8.48;1.23;;;16.90;99.90;;;;;;4938040;29;20065;-79
2022/10/03 10:03:38;;;;;;;6.05;0.70;;;17.00;99.90;;;;;;4939018;29;20055;-80
2022/10/03 10:06:14;;;;;;;4.35;0.77;;;16.90;99.90;;;;;;4922118;29;20051;-80
2022/10/03 10:09:21;;;;;;;6.22;0.93;;;17.00;99.90;;;;;;4921778;29;20102;-78
2022/10/03 10:12:09;;;;;;;6.30;0.82;;;17.00;99.90;;;;;;4922067;29;20059;-78
2022/10/03 10:14:47;;;;;;;7.22;0.80;;;17.10;99.90;;;;;;4921644;29;20106;-78
2022/10/03 10:17:55;;;;;;;7.90;1.27;;;17.10;99.90;;;;;;4921958;29;20138;-78
2022/10/03 10:20:23;;;;;;;8.05;0.80;;;17.00;99.90;;;;;;4938673;29;20052;-78
2022/10/03 10:23:09;;;;;;;6.93;1.13;;;17.00;99.90;;;;;;4921863;29;20047;-80
2022/10/03 10:25:56;;;;;;;5.60;0.77;;;17.10;99.90;;;;;;4921569;29;20058;-80
2022/10/03 10:28:36;;;;;;;6.80;1.20;;;17.00;99.90;;;;;;4921453;29;20044;-80
2022/10/03 10:31:26;;;;;;;5.72;0.90;;;17.10;99.90;;;;;;4921498;29;20051;-80
2022/10/03 10:34:22;;;;;;;7.43;0.80;;;17.10;99.90;;;;;;4921589;29;20051;-79
2022/10/03 10:37:17;;;;;;;8.50;1.23;;;17.10;99.90;;;;;;4938762;29;20047;-80
2022/10/03 10:39:50;;;;;;;5.35;0.85;;;17.10;99.90;;;;;;4938616;29;20257;-80
2022/10/03 10:42:36;;;;;;;6.43;0.90;;;17.20;99.90;;;;;;4938358;29;20079;-79
2022/10/03 10:45:38;;;;;;;11.10;0.90;;;17.20;99.90;;;;;;4921443;29;20048;-80
2022/10/03 10:48:16;;;;;;;5.18;0.82;;;17.30;99.90;;;;;;4921196;29;20063;-80
2022/10/03 10:50:55;;;;;;;6.10;0.60;;;17.30;99.90;;;;;;4921314;29;20127;-79
2022/10/03 10:53:59;;;;;;;9.50;1.05;;;17.30;99.90;;;;;;4938436;29;20043;-81
2022/10/03 10:56:42;;;;;;;;;;;17.50;99.90;;;;;;4937863;29;20134;-81
2022/10/03 10:59:45;;;;;;;6.78;0.80;;;17.60;99.90;;;;;;4937808;29;19923;-79
2022/10/03 11:02:36;;;;;;;6.63;0.88;;;17.60;99.90;;;;;;4920916;29;20055;-78
2022/10/03 11:05:34;;;;;;;8.40;0.75;;;17.60;99.90;;;;;;4921085;29;20052;-79
2022/10/03 11:08:48;;;;;;;7.57;1.08;;;17.60;99.90;;;;;;4938109;29;20138;-79
2022/10/03 11:11:52;;;;;;;6.63;0.80;;;17.50;99.90;;;;;;4937732;29;20055;-79
2022/10/03 11:15:10;;;;;;;4.88;0.68;;;17.40;99.90;;;;;;4889623;29;20492;-79
2022/10/03 11:17:48;;;;;;;5.13;0.82;;;17.50;99.90;;;;;;4845732;29;20059;-84
2022/10/03 11:20:58;;;;;;;4.93;1.13;;;17.50;99.90;;;;;;4920358;29;20403;-80
2022/10/03 11:23:36;;;;;;;6.80;1.00;;;17.50;99.90;;;;;;4920401;29;20059;-80
2022/10/03 11:26:37;;;;;;;5.32;0.77;;;17.50;99.90;;;;;;4920792;29;20134;-81
2022/10/03 11:29:31;;;;;;;7.13;0.80;;;17.60;99.90;;;;;;4937735;29;20107;-79
2022/10/03 11:32:07;;;;;;;7.45;0.95;;;17.60;99.90;;;;;;4920534;29;20051;-79
2022/10/03 11:34:47;;;;;;;5.57;0.70;;;17.70;99.90;;;;;;4920438;29;20045;-79
2022/10/03 11:37:24;;;;;;;8.35;1.05;;;17.80;99.90;;;;;;4920492;29;20051;-80
2022/10/03 11:40:09;;;;;;;6.45;1.10;;;17.90;99.90;;;;;;4920564;29;20083;-79
2022/10/03 11:43:08;;;;;;;6.05;0.75;;;17.90;99.90;;;;;;4937076;29;20484;-81
2022/10/03 11:46:10;;;;;;;6.93;0.70;;;17.90;99.90;;;;;;4920721;29;20530;-89
2022/10/03 11:49:01;;;;;;;6.18;0.90;;;18.00;99.90;;;;;;4937360;29;20122;-80
2022/10/03 11:51:30;;;;;;;2.90;0.80;;;18.10;99.90;;;;;;4876435;29;20055;-84
2022/10/03 11:54:17;;;;;;;2.78;0.73;;;18.20;99.90;;;;;;4936863;29;20480;-79
2022/10/03 11:56:49;;;;;;;3.47;0.93;;;18.20;99.90;;;;;;4937150;29;20066;-79
2022/10/03 11:59:24;;;;;;;;;;;18.20;99.90;;;;;;4920125;29;20071;-79
2022/10/03 12:02:10;;;;;;;5.68;0.60;;;18.20;99.90;;;;;;4937075;29;19923;-80
2022/10/03 12:04:57;;;;;;;5.07;0.57;;;18.30;99.90;;;;;;4919958;29;20084;-80
2022/10/03 12:10:44;;;;;;;7.13;1.05;;;18.20;99.90;;;;;;4936602;29;20048;-80
2022/10/03 12:13:16;;;;;;;6.40;0.90;;;18.10;99.90;;;;;;4936933;29;20043;-80
2022/10/03 12:15:48;;;;;;;4.60;0.77;;;17.90;99.90;;;;;;4919609;29;20043;-80
2022/10/03 12:18:26;;;;;;;5.85;0.80;;;18.00;99.90;;;;;;4919912;29;20066;-80
2022/10/03 12:21:05;;;;;;;5.13;0.75;;;17.90;99.90;;;;;;4919739;29;20048;-80
2022/10/03 12:23:51;;;;;;;5.70;0.90;;;17.80;99.90;;;;;;4919534;29;20059;-80
2022/10/03 12:26:30;;;;;;;7.28;0.80;;;17.80;99.90;;;;;;4919453;29;20047;-80
2022/10/03 12:28:57;;;;;;;5.75;0.80;;;17.80;99.90;;;;;;4920097;29;20055;-80
2022/10/03 12:31:28;;;;;;;6.32;0.88;;;17.70;99.90;;;;;;4919228;29;20059;-80
2022/10/03 12:34:01;;;;;;;7.05;0.70;;;17.60;99.90;;;;;;4936306;29;20475;-80
2022/10/03 12:36:49;;;;;;;4.68;0.63;;;17.60;99.90;;;;;;4919272;29;20054;-80
2022/10/03 12:39:33;;;;;;;3.55;0.60;;;17.70;99.90;;;;;;4919144;29;20530;-80
2022/10/03 12:42:34;;;;;;;8.18;0.63;;;17.80;99.90;;;;;;4918811;29;20054;-80
2022/10/03 12:45:39;;;;;;;5.82;0.70;;;17.70;99.90;;;;;;4867949;29;20495;-80
2022/10/03 12:48:34;;;;;;;2.35;0.52;;;17.70;99.90;;;;;;4825755;29;20131;-80
2022/10/03 12:51:07;;;;;;;6.45;1.00;;;17.70;99.90;;;;;;4897443;29;20059;-80
2022/10/03 12:54:17;;;;;;;7.75;0.77;;;17.60;99.90;;;;;;4919401;29;20396;-79
2022/10/03 12:56:57;;;;;;;4.93;0.60;;;17.60;99.90;;;;;;4918866;29;20055;-80
2022/10/03 12:59:39;;;;;;;6.80;1.45;;;17.70;99.90;;;;;;4925757;29;20075;-80
2022/10/03 13:02:29;;;;;;;3.97;0.82;;;17.70;99.90;;;;;;4935109;29;20056;-79
2022/10/03 13:05:30;;;;;;;8.85;0.77;;;17.80;99.90;;;;;;4936028;29;20082;-80
2022/10/03 13:08:34;;;;;;;5.88;0.70;;;17.70;99.90;;;;;;4936091;29;20047;-80
2022/10/03 13:11:13;;;;;;;4.25;0.80;;;17.60;99.90;;;;;;4921778;29;20055;-83
2022/10/03 13:13:57;;;;;;;6.13;1.05;;;17.60;99.90;;;;;;4934823;29;20043;-79
2022/10/03 13:16:29;;;;;;;6.78;0.80;;;17.50;99.90;;;;;;4934701;29;20048;-84
2022/10/03 13:19:12;;;;;;;5.93;0.60;;;17.40;99.90;;;;;;4934602;29;20047;-80
2022/10/03 13:22:05;;;;;;;6.00;0.90;;;17.40;99.90;;;;;;4939791;29;20051;-80
2022/10/03 13:25:09;;;;;;;7.20;0.77;;;17.40;99.90;;;;;;4903877;29;20059;-80
2022/10/03 13:27:47;;;;;;;6.78;0.82;;;17.40;99.90;;;;;;4939810;29;20054;-80
2022/10/03 13:30:23;;;;;;;8.23;0.80;;;17.30;99.90;;;;;;4939939;29;20086;-80
2022/10/03 13:33:28;;;;;;;5.05;0.70;;;17.40;99.90;;;;;;4938587;29;20491;-80
2022/10/03 13:36:16;;;;;;;6.53;1.58;;;17.30;99.90;;;;;;4909965;29;20060;-80
2022/10/03 13:39:20;;;;;;;6.72;1.65;;;17.20;99.90;;;;;;4938473;29;20056;-80
2022/10/03 13:42:04;;;;;;;6.72;1.02;;;17.20;99.90;;;;;;4938117;29;20427;-79
2022/10/03 13:44:47;;;;;;;3.25;0.52;;;17.20;99.90;;;;;;4938200;29;20051;-81
2022/10/03 13:47:34;;;;;;;6.93;0.88;;;17.30;99.90;;;;;;4939343;29;20519;-80
2022/10/03 13:50:28;;;;;;;5.95;0.90;;;17.20;99.90;;;;;;4938057;29;20048;-80
2022/10/03 13:53:04;;;;;;;5.80;0.93;;;17.10;99.90;;;;;;4939500;29;20084;-80
2022/10/03 13:55:43;;;;;;;5.63;0.88;;;17.10;99.90;;;;;;4937953;29;20086;-84
2022/10/03 13:58:44;;;;;;;4.20;0.70;;;17.10;99.90;;;;;;4937959;29;20151;-79
2022/10/03 14:01:33;;;;;;;5.78;1.00;;;17.10;99.90;;;;;;4915043;29;20048;-79
2022/10/03 14:04:36;;;;;;;4.40;1.00;;;17.10;99.90;;;;;;4939032;29;20052;-80
2022/10/03 14:07:04;;;;;;;9.32;1.20;;;17.20;99.90;;;;;;4922142;29;20055;-80
2022/10/03 14:09:45;;;;;;;6.40;1.20;;;17.20;99.90;;;;;;4921849;29;20055;-81
2022/10/03 14:12:34;;;;;;;5.57;0.75;;;17.20;99.90;;;;;;4921788;29;20053;-81
2022/10/03 14:15:22;;;;;;;4.35;0.55;;;17.20;99.90;;;;;;4921803;29;20048;-81
2022/10/03 14:18:19;;;;;;;4.28;0.80;;;17.20;99.90;;;;;;4922001;29;20130;-81
2022/10/03 14:21:22;;;;;;;6.63;1.33;;;17.00;99.90;;;;;;4922222;29;20447;-81
2022/10/03 14:24:09;;;;;;;7.97;0.77;;;17.10;99.90;;;;;;4922001;29;20048;-81
2022/10/03 14:26:46;;;;;;;6.60;1.27;;;17.10;99.90;;;;;;4921976;29;20051;-81
2022/10/03 14:29:34;;;;;;;4.95;0.80;;;17.10;99.90;;;;;;4939008;29;20047;-80
2022/10/03 14:32:13;;;;;;;6.10;0.93;;;17.20;99.90;;;;;;4938037;29;20052;-81
2022/10/03 14:34:52;;;;;;;5.03;0.77;;;17.10;99.90;;;;;;4921552;29;20511;-81
2022/10/03 14:37:41;;;;;;;4.50;0.98;;;17.10;99.90;;;;;;4938804;29;20126;-81